Forside
METAR-TAF:

METAR-TAF

Lufthavne :

Curaçao, Nederlandske Antiller

Breddekreds: 12-12N, længdekreds: 068-58W, højde: 9 m

Aktuelle vejr

Denne rapport blev lavet for 20 minutter siden, kl. 23:00 UTC
Vind 12 kt fra øst
Temperatur 28°C
Fugtighed 74%
Tryk 1015 hPa
Sigt 10 km eller mere

METAR: TNCC 172300Z AUTO 09012KT 9999 NCD 28/23 Q1015

Tid: 19:20 (23:20 UTC)

Vejrudsigter

Denne rapport blev lavet for 7 timer og 20 minutter siden, kl. 16:00 UTC
Foreløbig gælder fra 17 på 18 UTC til 18 på 18 UTC
Vind 18 kt fra øst med vindstød på up til 29 kt
Sigt 10 km eller mere
Spredte skyer i en højde af 2500 ft

TAF: TNCC 171600Z 1718/1818 10018G29KT 9999 SCT025

Vejrobservationer og prognoser fra mere end 4000 lufthavne (METAR og TAF).

De gule og røde prikker repræsenterer de meteorologiske stationer.

Flyt musen over at se navnet på stationen.

Så klik over at se vejr observationer og prognoser.

At skifte det kort: Klik på de grønne knapper med et sort kors for at zoome ind; på den grønne knap med en bindestreg for at zoome ud; eller på de grønne pile for tilstødende kort.


METAR-TAF: